sensor_id;sensor_type;location;lat;lon;timestamp;P1;durP1;ratioP1;P2;durP2;ratioP2
54368;SDS011;40266;52.434;17.056;2022-12-10T09:14:27;54.00;;;26.20;;
54368;SDS011;40266;52.434;17.056;2022-12-10T09:17:11;57.30;;;26.50;;
54368;SDS011;40266;52.434;17.056;2022-12-10T09:19:54;51.70;;;24.10;;
54368;SDS011;40266;52.434;17.056;2022-12-10T09:25:19;47.20;;;23.60;;
54368;SDS011;40266;52.434;17.056;2022-12-10T09:28:04;50.00;;;24.90;;
54368;SDS011;40266;52.434;17.056;2022-12-10T09:33:37;44.10;;;21.30;;
54368;SDS011;40266;52.434;17.056;2022-12-10T09:36:21;45.40;;;22.80;;
54368;SDS011;40266;52.434;17.056;2022-12-10T09:39:08;45.60;;;21.60;;
54368;SDS011;40266;52.434;17.056;2022-12-10T09:44:47;42.50;;;20.10;;
54368;SDS011;40266;52.434;17.056;2022-12-10T09:47:36;42.50;;;21.00;;
54368;SDS011;40266;52.434;17.056;2022-12-10T09:53:14;41.50;;;20.10;;
54368;SDS011;40266;52.434;17.056;2022-12-10T09:56:00;41.50;;;20.50;;
54368;SDS011;40266;52.434;17.056;2022-12-10T09:58:43;40.30;;;19.20;;
54368;SDS011;40266;52.434;17.056;2022-12-10T10:01:27;37.70;;;19.00;;
54368;SDS011;40266;52.434;17.056;2022-12-10T10:04:12;39.20;;;18.20;;
54368;SDS011;40266;52.434;17.056;2022-12-10T10:09:40;36.70;;;16.40;;
54368;SDS011;40266;52.434;17.056;2022-12-10T10:12:23;37.90;;;17.90;;
54368;SDS011;40266;52.434;17.056;2022-12-10T10:15:10;40.20;;;19.00;;
54368;SDS011;40266;52.434;17.056;2022-12-10T10:17:59;38.60;;;17.40;;
54368;SDS011;40266;52.434;17.056;2022-12-10T10:20:52;40.20;;;18.60;;
54368;SDS011;40266;52.434;17.056;2022-12-10T10:23:36;36.90;;;18.50;;
54368;SDS011;40266;52.434;17.056;2022-12-10T10:26:19;36.10;;;18.70;;
54368;SDS011;40266;52.434;17.056;2022-12-10T10:29:04;39.60;;;16.60;;
54368;SDS011;40266;52.434;17.056;2022-12-10T10:31:57;37.10;;;17.80;;
54368;SDS011;40266;52.434;17.056;2022-12-10T10:34:55;37.10;;;18.60;;
54368;SDS011;40266;52.434;17.056;2022-12-10T10:37:41;36.70;;;17.90;;
54368;SDS011;40266;52.434;17.056;2022-12-10T10:40:30;35.20;;;17.90;;
54368;SDS011;40266;52.434;17.056;2022-12-10T10:43:26;39.70;;;20.00;;
54368;SDS011;40266;52.434;17.056;2022-12-10T10:46:11;37.60;;;17.50;;
54368;SDS011;40266;52.434;17.056;2022-12-10T10:49:11;40.40;;;19.20;;
54368;SDS011;40266;52.434;17.056;2022-12-10T10:52:16;43.20;;;20.30;;
54368;SDS011;40266;52.434;17.056;2022-12-10T10:55:01;41.20;;;19.60;;
54368;SDS011;40266;52.434;17.056;2022-12-10T10:57:44;42.70;;;21.30;;
54368;SDS011;40266;52.434;17.056;2022-12-10T11:00:27;38.00;;;19.00;;
54368;SDS011;40266;52.434;17.056;2022-12-10T11:03:11;39.30;;;19.00;;
54368;SDS011;40266;52.434;17.056;2022-12-10T11:05:54;43.60;;;20.50;;
54368;SDS011;40266;52.434;17.056;2022-12-10T11:08:41;40.50;;;19.60;;
54368;SDS011;40266;52.434;17.056;2022-12-10T11:11:34;40.30;;;19.70;;
54368;SDS011;40266;52.434;17.056;2022-12-10T11:14:24;38.90;;;19.10;;
54368;SDS011;40266;52.434;17.056;2022-12-10T11:17:22;37.20;;;19.60;;
54368;SDS011;40266;52.434;17.056;2022-12-10T11:20:17;39.70;;;19.50;;
54368;SDS011;40266;52.434;17.056;2022-12-10T11:23:09;39.60;;;18.60;;
54368;SDS011;40266;52.434;17.056;2022-12-10T11:25:57;41.90;;;21.50;;
54368;SDS011;40266;52.434;17.056;2022-12-10T11:35:23;39.40;;;19.50;;
54368;SDS011;40266;52.434;17.056;2022-12-10T11:38:21;36.00;;;19.50;;
54368;SDS011;40266;52.434;17.056;2022-12-10T11:47:13;35.30;;;17.10;;
54368;SDS011;40266;52.434;17.056;2022-12-10T11:56:24;37.70;;;18.90;;
54368;SDS011;40266;52.434;17.056;2022-12-10T11:59:15;37.70;;;19.30;;
54368;SDS011;40266;52.434;17.056;2022-12-10T12:02:35;37.20;;;19.40;;
54368;SDS011;40266;52.434;17.056;2022-12-10T12:12:00;34.40;;;18.20;;
54368;SDS011;40266;52.434;17.056;2022-12-10T12:17:41;33.80;;;17.00;;
54368;SDS011;40266;52.434;17.056;2022-12-10T12:26:41;38.90;;;18.00;;
54368;SDS011;40266;52.434;17.056;2022-12-10T12:29:36;37.60;;;18.50;;
54368;SDS011;40266;52.434;17.056;2022-12-10T12:32:29;33.00;;;16.00;;
54368;SDS011;40266;52.434;17.056;2022-12-10T12:35:21;36.00;;;17.20;;
54368;SDS011;40266;52.434;17.056;2022-12-10T12:41:17;36.70;;;18.10;;
54368;SDS011;40266;52.434;17.056;2022-12-10T12:44:10;34.10;;;17.70;;
54368;SDS011;40266;52.434;17.056;2022-12-10T12:47:10;36.40;;;18.20;;
54368;SDS011;40266;52.434;17.056;2022-12-10T12:50:02;38.50;;;19.30;;
54368;SDS011;40266;52.434;17.056;2022-12-10T12:52:56;36.40;;;17.50;;
54368;SDS011;40266;52.434;17.056;2022-12-10T13:01:54;35.70;;;17.20;;
54368;SDS011;40266;52.434;17.056;2022-12-10T13:04:41;40.90;;;21.60;;
54368;SDS011;40266;52.434;17.056;2022-12-10T13:10:17;40.70;;;19.60;;
54368;SDS011;40266;52.434;17.056;2022-12-10T13:13:07;38.00;;;17.30;;
54368;SDS011;40266;52.434;17.056;2022-12-10T13:24:45;42.90;;;20.80;;
54368;SDS011;40266;52.434;17.056;2022-12-10T13:27:53;39.50;;;20.00;;
54368;SDS011;40266;52.434;17.056;2022-12-10T13:30:37;43.30;;;21.20;;
54368;SDS011;40266;52.434;17.056;2022-12-10T13:33:21;45.60;;;21.10;;
54368;SDS011;40266;52.434;17.056;2022-12-10T13:38:54;44.60;;;22.20;;
54368;SDS011;40266;52.434;17.056;2022-12-10T13:56:51;43.10;;;21.40;;
54368;SDS011;40266;52.434;17.056;2022-12-10T14:06:25;41.60;;;21.60;;
54368;SDS011;40266;52.434;17.056;2022-12-10T14:09:19;39.80;;;18.30;;
54368;SDS011;40266;52.434;17.056;2022-12-10T14:12:20;43.30;;;20.40;;
54368;SDS011;40266;52.434;17.056;2022-12-10T14:15:19;39.50;;;18.40;;
54368;SDS011;40266;52.434;17.056;2022-12-10T14:18:11;37.00;;;17.90;;
54368;SDS011;40266;52.434;17.056;2022-12-10T14:20:56;35.10;;;17.90;;
54368;SDS011;40266;52.434;17.056;2022-12-10T14:23:45;37.10;;;17.80;;
54368;SDS011;40266;52.434;17.056;2022-12-10T14:26:37;35.90;;;17.80;;
54368;SDS011;40266;52.434;17.056;2022-12-10T14:32:12;29.30;;;14.10;;
54368;SDS011;40266;52.434;17.056;2022-12-10T14:34:58;26.80;;;14.50;;
54368;SDS011;40266;52.434;17.056;2022-12-10T14:37:42;28.30;;;12.90;;
54368;SDS011;40266;52.434;17.056;2022-12-10T14:43:23;27.70;;;11.90;;
54368;SDS011;40266;52.434;17.056;2022-12-10T14:46:15;25.60;;;11.80;;
54368;SDS011;40266;52.434;17.056;2022-12-10T14:49:04;29.10;;;12.80;;
54368;SDS011;40266;52.434;17.056;2022-12-10T14:51:48;32.20;;;16.10;;
54368;SDS011;40266;52.434;17.056;2022-12-10T14:54:33;28.80;;;15.10;;
54368;SDS011;40266;52.434;17.056;2022-12-10T14:57:27;23.40;;;11.30;;
54368;SDS011;40266;52.434;17.056;2022-12-10T15:00:17;28.10;;;12.90;;
54368;SDS011;40266;52.434;17.056;2022-12-10T15:03:10;28.10;;;13.50;;
54368;SDS011;40266;52.434;17.056;2022-12-10T15:06:02;29.30;;;13.60;;
54368;SDS011;40266;52.434;17.056;2022-12-10T15:08:51;24.70;;;11.70;;
54368;SDS011;40266;52.434;17.056;2022-12-10T15:11:38;26.80;;;13.20;;
54368;SDS011;40266;52.434;17.056;2022-12-10T15:14:21;29.00;;;12.80;;
54368;SDS011;40266;52.434;17.056;2022-12-10T15:17:31;24.50;;;11.30;;
54368;SDS011;40266;52.434;17.056;2022-12-10T15:20:23;29.40;;;13.00;;
54368;SDS011;40266;52.434;17.056;2022-12-10T15:29:30;24.90;;;12.70;;
54368;SDS011;40266;52.434;17.056;2022-12-10T15:32:25;29.70;;;13.10;;
54368;SDS011;40266;52.434;17.056;2022-12-10T15:35:10;21.00;;;9.90;;
54368;SDS011;40266;52.434;17.056;2022-12-10T15:38:00;29.40;;;12.60;;
54368;SDS011;40266;52.434;17.056;2022-12-10T15:40:47;28.20;;;13.20;;
54368;SDS011;40266;52.434;17.056;2022-12-10T15:43:30;23.50;;;11.80;;
54368;SDS011;40266;52.434;17.056;2022-12-10T15:46:15;24.40;;;12.40;;
54368;SDS011;40266;52.434;17.056;2022-12-10T15:49:00;24.50;;;13.20;;
54368;SDS011;40266;52.434;17.056;2022-12-10T15:54:28;34.00;;;14.10;;
54368;SDS011;40266;52.434;17.056;2022-12-10T15:57:17;26.10;;;11.40;;
54368;SDS011;40266;52.434;17.056;2022-12-10T16:00:03;27.60;;;13.00;;
54368;SDS011;40266;52.434;17.056;2022-12-10T16:02:56;24.70;;;11.90;;
54368;SDS011;40266;52.434;17.056;2022-12-10T16:05:41;24.70;;;12.20;;
54368;SDS011;40266;52.434;17.056;2022-12-10T16:08:25;27.40;;;12.70;;
54368;SDS011;40266;52.434;17.056;2022-12-10T16:11:14;28.70;;;13.60;;
54368;SDS011;40266;52.434;17.056;2022-12-10T16:13:59;31.20;;;13.00;;
54368;SDS011;40266;52.434;17.056;2022-12-10T16:16:43;25.90;;;12.30;;
54368;SDS011;40266;52.434;17.056;2022-12-10T16:19:26;23.50;;;11.40;;
54368;SDS011;40266;52.434;17.056;2022-12-10T16:22:10;25.60;;;11.70;;
54368;SDS011;40266;52.434;17.056;2022-12-10T16:24:53;23.60;;;12.30;;
54368;SDS011;40266;52.434;17.056;2022-12-10T16:27:36;24.30;;;11.60;;
54368;SDS011;40266;52.434;17.056;2022-12-10T16:30:23;26.60;;;12.10;;
54368;SDS011;40266;52.434;17.056;2022-12-10T16:33:18;25.20;;;12.60;;
54368;SDS011;40266;52.434;17.056;2022-12-10T16:36:03;29.60;;;13.60;;
54368;SDS011;40266;52.434;17.056;2022-12-10T16:38:47;28.70;;;14.00;;
54368;SDS011;40266;52.434;17.056;2022-12-10T16:41:29;29.90;;;15.00;;
54368;SDS011;40266;52.434;17.056;2022-12-10T16:46:56;29.00;;;13.90;;
54368;SDS011;40266;52.434;17.056;2022-12-10T16:49:40;25.20;;;11.40;;
54368;SDS011;40266;52.434;17.056;2022-12-10T16:52:23;25.80;;;11.70;;
54368;SDS011;40266;52.434;17.056;2022-12-10T16:57:50;29.90;;;13.10;;
54368;SDS011;40266;52.434;17.056;2022-12-10T17:00:34;28.40;;;12.70;;
54368;SDS011;40266;52.434;17.056;2022-12-10T17:06:08;25.80;;;12.60;;
54368;SDS011;40266;52.434;17.056;2022-12-10T17:08:53;28.50;;;13.50;;
54368;SDS011;40266;52.434;17.056;2022-12-10T17:11:40;26.20;;;12.10;;
54368;SDS011;40266;52.434;17.056;2022-12-10T17:14:32;32.00;;;14.30;;
54368;SDS011;40266;52.434;17.056;2022-12-10T17:17:20;27.30;;;13.40;;
54368;SDS011;40266;52.434;17.056;2022-12-10T17:20:09;35.90;;;16.10;;
54368;SDS011;40266;52.434;17.056;2022-12-10T17:22:58;28.40;;;15.40;;
54368;SDS011;40266;52.434;17.056;2022-12-10T17:25:42;30.80;;;14.00;;
54368;SDS011;40266;52.434;17.056;2022-12-10T17:28:25;31.50;;;15.40;;
54368;SDS011;40266;52.434;17.056;2022-12-10T17:31:08;34.10;;;16.20;;
54368;SDS011;40266;52.434;17.056;2022-12-10T17:36:34;29.20;;;13.90;;
54368;SDS011;40266;52.434;17.056;2022-12-10T17:42:04;29.70;;;13.80;;
54368;SDS011;40266;52.434;17.056;2022-12-10T17:44:50;29.20;;;15.40;;
54368;SDS011;40266;52.434;17.056;2022-12-10T17:53:15;31.90;;;15.70;;
54368;SDS011;40266;52.434;17.056;2022-12-10T17:56:00;28.10;;;14.30;;
54368;SDS011;40266;52.434;17.056;2022-12-10T17:58:44;28.60;;;12.80;;
54368;SDS011;40266;52.434;17.056;2022-12-10T18:01:28;32.00;;;16.10;;
54368;SDS011;40266;52.434;17.056;2022-12-10T18:04:13;34.60;;;14.40;;
54368;SDS011;40266;52.434;17.056;2022-12-10T18:09:39;28.60;;;13.90;;
54368;SDS011;40266;52.434;17.056;2022-12-10T18:12:23;29.10;;;14.30;;
54368;SDS011;40266;52.434;17.056;2022-12-10T18:15:08;32.40;;;15.40;;
54368;SDS011;40266;52.434;17.056;2022-12-10T18:17:52;29.50;;;13.80;;
54368;SDS011;40266;52.434;17.056;2022-12-10T18:20:37;28.50;;;14.80;;
54368;SDS011;40266;52.434;17.056;2022-12-10T18:23:21;30.10;;;15.20;;
54368;SDS011;40266;52.434;17.056;2022-12-10T18:26:04;33.00;;;15.20;;
54368;SDS011;40266;52.434;17.056;2022-12-10T18:28:57;32.70;;;16.00;;
54368;SDS011;40266;52.434;17.056;2022-12-10T18:31:42;32.20;;;16.10;;
54368;SDS011;40266;52.434;17.056;2022-12-10T18:34:27;32.80;;;15.90;;
54368;SDS011;40266;52.434;17.056;2022-12-10T18:39:53;36.80;;;16.10;;
54368;SDS011;40266;52.434;17.056;2022-12-10T18:45:23;35.00;;;17.30;;
54368;SDS011;40266;52.434;17.056;2022-12-10T18:48:07;34.10;;;15.80;;
54368;SDS011;40266;52.434;17.056;2022-12-10T18:50:51;37.10;;;15.40;;
54368;SDS011;40266;52.434;17.056;2022-12-10T18:53:36;31.00;;;15.90;;
54368;SDS011;40266;52.434;17.056;2022-12-10T18:56:21;35.20;;;17.10;;
54368;SDS011;40266;52.434;17.056;2022-12-10T18:59:10;36.60;;;17.40;;
54368;SDS011;40266;52.434;17.056;2022-12-10T19:01:55;32.10;;;14.50;;
54368;SDS011;40266;52.434;17.056;2022-12-10T19:04:38;31.00;;;16.20;;
54368;SDS011;40266;52.434;17.056;2022-12-10T19:07:21;34.40;;;16.50;;
54368;SDS011;40266;52.434;17.056;2022-12-10T19:12:53;32.60;;;15.30;;
54368;SDS011;40266;52.434;17.056;2022-12-10T19:18:24;29.20;;;14.30;;
54368;SDS011;40266;52.434;17.056;2022-12-10T19:23:51;28.10;;;14.50;;
54368;SDS011;40266;52.434;17.056;2022-12-10T19:26:35;33.70;;;15.10;;
54368;SDS011;40266;52.434;17.056;2022-12-10T19:29:20;29.20;;;15.00;;
54368;SDS011;40266;52.434;17.056;2022-12-10T19:32:04;30.80;;;15.10;;
54368;SDS011;40266;52.434;17.056;2022-12-10T19:34:47;29.20;;;15.00;;
54368;SDS011;40266;52.434;17.056;2022-12-10T19:37:31;29.60;;;14.20;;
54368;SDS011;40266;52.434;17.056;2022-12-10T19:43:05;29.70;;;14.60;;
54368;SDS011;40266;52.434;17.056;2022-12-10T19:45:55;32.90;;;16.00;;
54368;SDS011;40266;52.434;17.056;2022-12-10T19:51:21;31.70;;;16.20;;
54368;SDS011;40266;52.434;17.056;2022-12-10T19:54:06;29.20;;;14.20;;
54368;SDS011;40266;52.434;17.056;2022-12-10T19:56:50;31.20;;;13.90;;
54368;SDS011;40266;52.434;17.056;2022-12-10T20:02:15;32.90;;;16.60;;
54368;SDS011;40266;52.434;17.056;2022-12-10T20:04:59;29.60;;;14.10;;
54368;SDS011;40266;52.434;17.056;2022-12-10T20:07:42;27.90;;;13.50;;
54368;SDS011;40266;52.434;17.056;2022-12-10T20:10:27;28.60;;;13.60;;
54368;SDS011;40266;52.434;17.056;2022-12-10T20:13:11;31.00;;;15.20;;
54368;SDS011;40266;52.434;17.056;2022-12-10T20:15:54;30.70;;;14.30;;
54368;SDS011;40266;52.434;17.056;2022-12-10T20:18:38;29.10;;;14.30;;
54368;SDS011;40266;52.434;17.056;2022-12-10T20:24:04;30.40;;;16.50;;
54368;SDS011;40266;52.434;17.056;2022-12-10T20:26:47;31.80;;;14.70;;
54368;SDS011;40266;52.434;17.056;2022-12-10T20:29:31;30.20;;;15.30;;
54368;SDS011;40266;52.434;17.056;2022-12-10T20:34:57;27.90;;;13.20;;
54368;SDS011;40266;52.434;17.056;2022-12-10T20:40:23;28.70;;;13.60;;
54368;SDS011;40266;52.434;17.056;2022-12-10T20:43:15;29.50;;;13.90;;
54368;SDS011;40266;52.434;17.056;2022-12-10T20:45:58;28.90;;;14.20;;
54368;SDS011;40266;52.434;17.056;2022-12-10T20:48:41;29.40;;;14.10;;
54368;SDS011;40266;52.434;17.056;2022-12-10T20:51:26;33.00;;;15.80;;
54368;SDS011;40266;52.434;17.056;2022-12-10T20:54:09;36.30;;;17.00;;
54368;SDS011;40266;52.434;17.056;2022-12-10T20:56:53;31.20;;;15.40;;
54368;SDS011;40266;52.434;17.056;2022-12-10T20:59:41;37.60;;;17.20;;
54368;SDS011;40266;52.434;17.056;2022-12-10T21:02:24;37.60;;;17.30;;
54368;SDS011;40266;52.434;17.056;2022-12-10T21:05:08;34.10;;;16.20;;
54368;SDS011;40266;52.434;17.056;2022-12-10T21:07:52;32.60;;;15.30;;
54368;SDS011;40266;52.434;17.056;2022-12-10T21:13:33;32.70;;;16.30;;
54368;SDS011;40266;52.434;17.056;2022-12-10T21:16:17;36.60;;;17.30;;
54368;SDS011;40266;52.434;17.056;2022-12-10T21:19:02;31.30;;;14.90;;
54368;SDS011;40266;52.434;17.056;2022-12-10T21:21:45;31.00;;;16.20;;
54368;SDS011;40266;52.434;17.056;2022-12-10T21:24:28;32.30;;;15.80;;
54368;SDS011;40266;52.434;17.056;2022-12-10T21:27:11;31.60;;;15.70;;
54368;SDS011;40266;52.434;17.056;2022-12-10T21:32:38;31.40;;;14.80;;
54368;SDS011;40266;52.434;17.056;2022-12-10T21:35:21;31.10;;;15.30;;
54368;SDS011;40266;52.434;17.056;2022-12-10T21:40:47;32.80;;;17.10;;
54368;SDS011;40266;52.434;17.056;2022-12-10T21:43:30;35.20;;;16.80;;
54368;SDS011;40266;52.434;17.056;2022-12-10T21:48:56;32.60;;;15.90;;
54368;SDS011;40266;52.434;17.056;2022-12-10T21:51:39;38.20;;;17.10;;
54368;SDS011;40266;52.434;17.056;2022-12-10T21:54:23;35.80;;;16.30;;
54368;SDS011;40266;52.434;17.056;2022-12-10T21:57:06;34.00;;;16.10;;
54368;SDS011;40266;52.434;17.056;2022-12-10T21:59:50;29.40;;;15.20;;
54368;SDS011;40266;52.434;17.056;2022-12-10T22:02:36;33.50;;;16.00;;
54368;SDS011;40266;52.434;17.056;2022-12-10T22:05:20;36.50;;;15.90;;
54368;SDS011;40266;52.434;17.056;2022-12-10T22:08:03;40.70;;;18.00;;
54368;SDS011;40266;52.434;17.056;2022-12-10T22:10:46;36.30;;;17.10;;
54368;SDS011;40266;52.434;17.056;2022-12-10T22:13:32;38.30;;;17.70;;
54368;SDS011;40266;52.434;17.056;2022-12-10T22:16:15;40.20;;;17.80;;
54368;SDS011;40266;52.434;17.056;2022-12-10T22:18:58;44.40;;;18.60;;
54368;SDS011;40266;52.434;17.056;2022-12-10T22:24:23;42.00;;;18.50;;
54368;SDS011;40266;52.434;17.056;2022-12-10T22:29:49;46.70;;;21.20;;
54368;SDS011;40266;52.434;17.056;2022-12-10T22:32:33;39.10;;;19.60;;
54368;SDS011;40266;52.434;17.056;2022-12-10T22:35:16;41.80;;;17.80;;
54368;SDS011;40266;52.434;17.056;2022-12-10T22:37:59;38.60;;;18.40;;
54368;SDS011;40266;52.434;17.056;2022-12-10T22:40:44;37.50;;;17.90;;
54368;SDS011;40266;52.434;17.056;2022-12-10T22:43:27;39.10;;;18.80;;
54368;SDS011;40266;52.434;17.056;2022-12-10T22:46:31;43.70;;;19.40;;
54368;SDS011;40266;52.434;17.056;2022-12-10T22:49:14;37.60;;;17.50;;
54368;SDS011;40266;52.434;17.056;2022-12-10T22:51:58;34.90;;;16.90;;
54368;SDS011;40266;52.434;17.056;2022-12-10T22:54:41;37.90;;;17.50;;
54368;SDS011;40266;52.434;17.056;2022-12-10T22:57:23;32.50;;;16.30;;
54368;SDS011;40266;52.434;17.056;2022-12-10T23:00:08;33.20;;;17.30;;
54368;SDS011;40266;52.434;17.056;2022-12-10T23:02:57;43.80;;;20.70;;
54368;SDS011;40266;52.434;17.056;2022-12-10T23:05:41;39.40;;;18.30;;
54368;SDS011;40266;52.434;17.056;2022-12-10T23:08:24;37.80;;;16.70;;
54368;SDS011;40266;52.434;17.056;2022-12-10T23:11:07;42.30;;;18.10;;
54368;SDS011;40266;52.434;17.056;2022-12-10T23:13:52;36.10;;;16.70;;
54368;SDS011;40266;52.434;17.056;2022-12-10T23:19:18;40.60;;;17.50;;
54368;SDS011;40266;52.434;17.056;2022-12-10T23:22:01;44.40;;;17.80;;
54368;SDS011;40266;52.434;17.056;2022-12-10T23:24:44;35.60;;;18.00;;
54368;SDS011;40266;52.434;17.056;2022-12-10T23:27:27;39.40;;;17.80;;
54368;SDS011;40266;52.434;17.056;2022-12-10T23:30:11;38.30;;;17.70;;
54368;SDS011;40266;52.434;17.056;2022-12-10T23:32:54;35.30;;;16.90;;
54368;SDS011;40266;52.434;17.056;2022-12-10T23:35:41;37.00;;;16.10;;
54368;SDS011;40266;52.434;17.056;2022-12-10T23:38:25;38.10;;;17.90;;
54368;SDS011;40266;52.434;17.056;2022-12-10T23:41:08;33.80;;;16.20;;
54368;SDS011;40266;52.434;17.056;2022-12-10T23:43:53;36.70;;;18.50;;
54368;SDS011;40266;52.434;17.056;2022-12-10T23:46:39;35.30;;;16.80;;
54368;SDS011;40266;52.434;17.056;2022-12-10T23:49:22;44.90;;;18.10;;
54368;SDS011;40266;52.434;17.056;2022-12-10T23:54:51;37.30;;;16.60;;
